Weather at Boeing Field King County International Airport

Public forecast

Using degrees Fahrenheit for public forecast. Weather courtesy of forecast.io.

Current aviation weather report (METAR) for Boeing Field King County International Airport

Retrieved 2020/09/29 20:53 UTC (22 minutes ago):

KBFI 292053Z VRB05KT 10SM CLR 23/13 A3005 RMK AO2 SLP175 T02280128 58018

Aviation forecast (TAF) for Boeing Field King County International Airport

Retrieved 2020/09/29 18:30 UTC (3 hours ago):

TAF KBFI 291729Z 2918/3018 VRB04KT P6SM SKC FM292200 33006KT P6SM SKC FM300500 00000KT P6SM BKN070